Terminal Aerodrome Forecast
Issued by NWS

Home | Current Version | Previous Version | Text Only | Print | Product List | Glossary On
Versions: 1 2 3 4 5 6 7 8 9 10 11 12 13 14 15 16 17 18 19
000
FTUS45 KSLC 260654 AAA
TAF36U
TAF AMD
K36U 260654Z 2607/2706 23017G30KT P6SM SCT090 BKN200
     FM260800 VRB04KT P6SM SCT040 BKN070
     FM261600 01010G15KT P6SM VCSH SCT030 BKN060=

USA.gov is the U.S. government's official web portal to all federal, state and local government web resources and services.